aviador You're here:

UTAT Decoded Metar

DASHOGUZ in RUSSIA
Report Time2017-11-22 05:00:00
UTC Time2017-11-22 05:12:03
Flight Rules vfr VFR
Wind120° at 16 kt
W.Decomp.*RWY 09: 14.5 kt HW 6.8 kt RCW
W.Rank120° ranks 17
Current wind is above 120° avg. (8.9)
Visibility9999 m
Phenomena:N/A
Clouds:N/A
Expected CloudBase > 5,200 ft AGL from Temp-Dew spread
CeilingNone
Temp10°C (ISA -4)
Dew Point-3°C (40% RH)
AAT1.9°C
QNH1009 hPa
Density Alt-56 ft
Elevation272 ft
Report Wrong Elevation
Raw Report
METAR UTAT 220500Z 12016KT CAVOK 10/M03 Q1009 R08/CLRD70
NOSIG=####018000134####
SASP42 LEMM 220500

Extra information for UTAT:More info

Metar Taf Metar & Taf Last 4 Metars F.Rules Stats Wind Profile Meteogram Temp Stats Airport Information Weather charts Add Link Nearby VenuesMetar ALERT Operation Metar Decoded Social comments